sensor_id;sensor_type;location;lat;lon;timestamp;P1;durP1;ratioP1;P2;durP2;ratioP2
20166;SDS011;10243;49.118;8.508;2022-11-25T00:01:13;34.60;;;19.57;;
20166;SDS011;10243;49.118;8.508;2022-11-25T00:04:16;34.93;;;18.30;;
20166;SDS011;10243;49.118;8.508;2022-11-25T00:07:20;39.37;;;19.67;;
20166;SDS011;10243;49.118;8.508;2022-11-25T00:10:24;35.93;;;19.93;;
20166;SDS011;10243;49.118;8.508;2022-11-25T00:13:26;37.87;;;18.50;;
20166;SDS011;10243;49.118;8.508;2022-11-25T00:16:28;26.83;;;16.53;;
20166;SDS011;10243;49.118;8.508;2022-11-25T00:19:30;32.50;;;18.37;;
20166;SDS011;10243;49.118;8.508;2022-11-25T00:22:32;29.77;;;16.50;;
20166;SDS011;10243;49.118;8.508;2022-11-25T00:25:36;34.13;;;18.40;;
20166;SDS011;10243;49.118;8.508;2022-11-25T00:28:38;36.40;;;18.23;;
20166;SDS011;10243;49.118;8.508;2022-11-25T00:31:42;34.27;;;18.63;;
20166;SDS011;10243;49.118;8.508;2022-11-25T00:34:44;26.37;;;15.80;;
20166;SDS011;10243;49.118;8.508;2022-11-25T00:37:46;33.00;;;20.57;;
20166;SDS011;10243;49.118;8.508;2022-11-25T00:40:52;43.27;;;19.43;;
20166;SDS011;10243;49.118;8.508;2022-11-25T00:44:16;35.97;;;19.07;;
20166;SDS011;10243;49.118;8.508;2022-11-25T00:47:37;31.07;;;17.90;;
20166;SDS011;10243;49.118;8.508;2022-11-25T00:50:38;27.07;;;17.17;;
20166;SDS011;10243;49.118;8.508;2022-11-25T00:53:42;29.10;;;17.73;;
20166;SDS011;10243;49.118;8.508;2022-11-25T00:56:45;29.57;;;16.47;;
20166;SDS011;10243;49.118;8.508;2022-11-25T00:59:48;33.53;;;15.97;;
20166;SDS011;10243;49.118;8.508;2022-11-25T01:02:50;27.07;;;15.57;;
20166;SDS011;10243;49.118;8.508;2022-11-25T01:05:52;23.83;;;13.23;;
20166;SDS011;10243;49.118;8.508;2022-11-25T01:08:54;27.33;;;14.60;;
20166;SDS011;10243;49.118;8.508;2022-11-25T01:11:57;23.27;;;14.30;;
20166;SDS011;10243;49.118;8.508;2022-11-25T01:14:59;24.80;;;13.47;;
20166;SDS011;10243;49.118;8.508;2022-11-25T01:18:01;26.03;;;14.43;;
20166;SDS011;10243;49.118;8.508;2022-11-25T01:21:06;24.23;;;13.83;;
20166;SDS011;10243;49.118;8.508;2022-11-25T01:24:09;24.60;;;13.57;;
20166;SDS011;10243;49.118;8.508;2022-11-25T01:27:15;22.57;;;11.67;;
20166;SDS011;10243;49.118;8.508;2022-11-25T01:30:16;26.77;;;10.13;;
20166;SDS011;10243;49.118;8.508;2022-11-25T01:33:18;22.47;;;10.50;;
20166;SDS011;10243;49.118;8.508;2022-11-25T01:36:20;16.60;;;11.00;;
20166;SDS011;10243;49.118;8.508;2022-11-25T01:39:23;15.20;;;9.47;;
20166;SDS011;10243;49.118;8.508;2022-11-25T01:42:28;15.27;;;9.80;;
20166;SDS011;10243;49.118;8.508;2022-11-25T01:45:32;15.47;;;9.67;;
20166;SDS011;10243;49.118;8.508;2022-11-25T01:48:37;20.50;;;9.60;;
20166;SDS011;10243;49.118;8.508;2022-11-25T01:51:43;19.40;;;9.53;;
20166;SDS011;10243;49.118;8.508;2022-11-25T01:54:49;16.70;;;8.97;;
20166;SDS011;10243;49.118;8.508;2022-11-25T01:57:57;13.13;;;9.30;;
20166;SDS011;10243;49.118;8.508;2022-11-25T02:01:04;15.50;;;9.00;;
20166;SDS011;10243;49.118;8.508;2022-11-25T02:04:07;17.90;;;9.70;;
20166;SDS011;10243;49.118;8.508;2022-11-25T02:07:14;14.80;;;8.80;;
20166;SDS011;10243;49.118;8.508;2022-11-25T02:10:21;19.13;;;9.37;;
20166;SDS011;10243;49.118;8.508;2022-11-25T02:13:28;14.73;;;8.77;;
20166;SDS011;10243;49.118;8.508;2022-11-25T02:16:30;17.37;;;8.83;;
20166;SDS011;10243;49.118;8.508;2022-11-25T02:19:37;17.40;;;9.17;;
20166;SDS011;10243;49.118;8.508;2022-11-25T02:22:50;11.83;;;8.33;;
20166;SDS011;10243;49.118;8.508;2022-11-25T02:25:58;14.97;;;8.07;;
20166;SDS011;10243;49.118;8.508;2022-11-25T02:29:01;16.20;;;8.97;;
20166;SDS011;10243;49.118;8.508;2022-11-25T02:32:03;13.10;;;8.33;;
20166;SDS011;10243;49.118;8.508;2022-11-25T02:35:19;15.23;;;9.33;;
20166;SDS011;10243;49.118;8.508;2022-11-25T02:38:33;17.43;;;9.63;;
20166;SDS011;10243;49.118;8.508;2022-11-25T02:41:43;16.70;;;9.97;;
20166;SDS011;10243;49.118;8.508;2022-11-25T02:44:47;17.93;;;10.50;;
20166;SDS011;10243;49.118;8.508;2022-11-25T02:47:49;17.50;;;10.20;;
20166;SDS011;10243;49.118;8.508;2022-11-25T02:50:51;19.37;;;10.37;;
20166;SDS011;10243;49.118;8.508;2022-11-25T02:53:53;15.93;;;10.30;;
20166;SDS011;10243;49.118;8.508;2022-11-25T02:56:59;16.97;;;10.23;;
20166;SDS011;10243;49.118;8.508;2022-11-25T03:00:01;20.83;;;10.30;;
20166;SDS011;10243;49.118;8.508;2022-11-25T03:03:04;16.77;;;10.97;;
20166;SDS011;10243;49.118;8.508;2022-11-25T03:06:06;23.90;;;10.77;;
20166;SDS011;10243;49.118;8.508;2022-11-25T03:09:08;21.30;;;9.97;;
20166;SDS011;10243;49.118;8.508;2022-11-25T03:12:13;20.10;;;10.03;;
20166;SDS011;10243;49.118;8.508;2022-11-25T03:15:22;21.90;;;10.60;;
20166;SDS011;10243;49.118;8.508;2022-11-25T03:18:24;18.70;;;10.97;;
20166;SDS011;10243;49.118;8.508;2022-11-25T03:21:26;18.43;;;9.37;;
20166;SDS011;10243;49.118;8.508;2022-11-25T03:24:28;17.33;;;10.17;;
20166;SDS011;10243;49.118;8.508;2022-11-25T03:27:33;20.77;;;10.23;;
20166;SDS011;10243;49.118;8.508;2022-11-25T03:30:36;16.10;;;9.67;;
20166;SDS011;10243;49.118;8.508;2022-11-25T03:33:38;17.77;;;9.83;;
20166;SDS011;10243;49.118;8.508;2022-11-25T03:36:40;12.67;;;8.80;;
20166;SDS011;10243;49.118;8.508;2022-11-25T03:39:42;11.80;;;8.23;;
20166;SDS011;10243;49.118;8.508;2022-11-25T03:42:46;11.53;;;8.30;;
20166;SDS011;10243;49.118;8.508;2022-11-25T03:45:49;18.87;;;8.60;;
20166;SDS011;10243;49.118;8.508;2022-11-25T03:48:51;21.37;;;9.40;;
20166;SDS011;10243;49.118;8.508;2022-11-25T03:51:53;14.17;;;8.83;;
20166;SDS011;10243;49.118;8.508;2022-11-25T03:54:55;10.00;;;7.80;;
20166;SDS011;10243;49.118;8.508;2022-11-25T03:58:02;11.20;;;7.73;;
20166;SDS011;10243;49.118;8.508;2022-11-25T04:01:05;15.17;;;7.70;;
20166;SDS011;10243;49.118;8.508;2022-11-25T04:04:07;20.50;;;9.10;;
20166;SDS011;10243;49.118;8.508;2022-11-25T04:07:09;13.73;;;9.30;;
20166;SDS011;10243;49.118;8.508;2022-11-25T04:10:11;11.97;;;9.20;;
20166;SDS011;10243;49.118;8.508;2022-11-25T04:13:14;11.70;;;8.83;;
20166;SDS011;10243;49.118;8.508;2022-11-25T04:16:23;11.20;;;8.20;;
20166;SDS011;10243;49.118;8.508;2022-11-25T04:19:27;13.97;;;7.77;;
20166;SDS011;10243;49.118;8.508;2022-11-25T04:22:29;11.67;;;7.70;;
20166;SDS011;10243;49.118;8.508;2022-11-25T04:25:31;12.57;;;8.47;;
20166;SDS011;10243;49.118;8.508;2022-11-25T04:28:35;10.13;;;6.80;;
20166;SDS011;10243;49.118;8.508;2022-11-25T04:31:37;11.50;;;7.40;;
20166;SDS011;10243;49.118;8.508;2022-11-25T04:34:39;8.77;;;6.77;;
20166;SDS011;10243;49.118;8.508;2022-11-25T04:37:42;7.87;;;6.97;;
20166;SDS011;10243;49.118;8.508;2022-11-25T04:40:44;6.73;;;6.03;;
20166;SDS011;10243;49.118;8.508;2022-11-25T04:43:56;12.43;;;7.37;;
20166;SDS011;10243;49.118;8.508;2022-11-25T04:47:01;13.73;;;7.73;;
20166;SDS011;10243;49.118;8.508;2022-11-25T04:50:03;12.80;;;7.93;;
20166;SDS011;10243;49.118;8.508;2022-11-25T04:53:11;9.20;;;6.63;;
20166;SDS011;10243;49.118;8.508;2022-11-25T04:56:15;7.77;;;6.97;;
20166;SDS011;10243;49.118;8.508;2022-11-25T04:59:20;11.47;;;7.23;;
20166;SDS011;10243;49.118;8.508;2022-11-25T05:02:40;14.27;;;7.67;;
20166;SDS011;10243;49.118;8.508;2022-11-25T05:05:48;17.53;;;9.37;;
20166;SDS011;10243;49.118;8.508;2022-11-25T05:08:51;17.53;;;9.00;;
20166;SDS011;10243;49.118;8.508;2022-11-25T05:11:54;20.90;;;9.00;;
20166;SDS011;10243;49.118;8.508;2022-11-25T05:14:57;21.43;;;9.57;;
20166;SDS011;10243;49.118;8.508;2022-11-25T05:18:00;17.63;;;9.20;;
20166;SDS011;10243;49.118;8.508;2022-11-25T05:21:13;14.40;;;8.40;;
20166;SDS011;10243;49.118;8.508;2022-11-25T05:24:16;12.60;;;7.50;;
20166;SDS011;10243;49.118;8.508;2022-11-25T05:27:21;11.93;;;7.80;;
20166;SDS011;10243;49.118;8.508;2022-11-25T05:30:24;14.00;;;7.20;;
20166;SDS011;10243;49.118;8.508;2022-11-25T05:33:26;14.50;;;6.60;;
20166;SDS011;10243;49.118;8.508;2022-11-25T05:36:28;11.47;;;6.63;;
20166;SDS011;10243;49.118;8.508;2022-11-25T05:39:31;11.17;;;7.13;;
20166;SDS011;10243;49.118;8.508;2022-11-25T05:42:50;52.47;;;25.60;;
20166;SDS011;10243;49.118;8.508;2022-11-25T05:45:54;20.83;;;11.70;;
20166;SDS011;10243;49.118;8.508;2022-11-25T05:48:57;8.80;;;6.50;;
20166;SDS011;10243;49.118;8.508;2022-11-25T05:51:59;9.53;;;6.53;;
20166;SDS011;10243;49.118;8.508;2022-11-25T05:55:06;12.40;;;7.93;;
20166;SDS011;10243;49.118;8.508;2022-11-25T05:58:08;12.53;;;7.30;;
20166;SDS011;10243;49.118;8.508;2022-11-25T06:01:12;11.90;;;7.73;;
20166;SDS011;10243;49.118;8.508;2022-11-25T06:04:16;12.50;;;7.17;;
20166;SDS011;10243;49.118;8.508;2022-11-25T06:07:18;12.13;;;7.53;;
20166;SDS011;10243;49.118;8.508;2022-11-25T06:10:20;13.07;;;8.60;;
20166;SDS011;10243;49.118;8.508;2022-11-25T06:13:24;15.67;;;8.97;;
20166;SDS011;10243;49.118;8.508;2022-11-25T06:16:27;14.43;;;8.87;;
20166;SDS011;10243;49.118;8.508;2022-11-25T06:19:41;20.67;;;9.73;;
20166;SDS011;10243;49.118;8.508;2022-11-25T06:22:43;19.57;;;8.77;;
20166;SDS011;10243;49.118;8.508;2022-11-25T06:25:45;17.77;;;9.37;;
20166;SDS011;10243;49.118;8.508;2022-11-25T06:28:47;17.83;;;11.03;;
20166;SDS011;10243;49.118;8.508;2022-11-25T06:31:53;12.47;;;8.10;;
20166;SDS011;10243;49.118;8.508;2022-11-25T06:35:07;10.27;;;7.73;;
20166;SDS011;10243;49.118;8.508;2022-11-25T06:38:21;15.00;;;8.50;;
20166;SDS011;10243;49.118;8.508;2022-11-25T06:41:23;12.60;;;8.37;;
20166;SDS011;10243;49.118;8.508;2022-11-25T06:44:25;15.53;;;8.57;;
20166;SDS011;10243;49.118;8.508;2022-11-25T06:47:28;14.53;;;9.13;;
20166;SDS011;10243;49.118;8.508;2022-11-25T06:50:31;14.48;;;9.35;;
20166;SDS011;10243;49.118;8.508;2022-11-25T06:53:33;16.60;;;9.10;;
20166;SDS011;10243;49.118;8.508;2022-11-25T06:56:35;14.30;;;8.20;;
20166;SDS011;10243;49.118;8.508;2022-11-25T06:59:39;19.93;;;10.47;;
20166;SDS011;10243;49.118;8.508;2022-11-25T07:02:42;21.20;;;10.20;;
20166;SDS011;10243;49.118;8.508;2022-11-25T07:05:44;9.93;;;6.90;;
20166;SDS011;10243;49.118;8.508;2022-11-25T07:08:46;9.60;;;6.97;;
20166;SDS011;10243;49.118;8.508;2022-11-25T07:11:48;13.40;;;8.87;;
20166;SDS011;10243;49.118;8.508;2022-11-25T07:14:50;33.57;;;18.20;;
20166;SDS011;10243;49.118;8.508;2022-11-25T07:17:54;8.83;;;7.10;;
20166;SDS011;10243;49.118;8.508;2022-11-25T07:21:00;16.13;;;8.03;;
20166;SDS011;10243;49.118;8.508;2022-11-25T07:24:03;14.13;;;9.87;;
20166;SDS011;10243;49.118;8.508;2022-11-25T07:27:07;19.53;;;10.73;;
20166;SDS011;10243;49.118;8.508;2022-11-25T07:30:09;23.17;;;11.63;;
20166;SDS011;10243;49.118;8.508;2022-11-25T07:33:13;21.27;;;10.80;;
20166;SDS011;10243;49.118;8.508;2022-11-25T07:36:14;17.73;;;10.07;;
20166;SDS011;10243;49.118;8.508;2022-11-25T07:39:17;14.97;;;9.33;;
20166;SDS011;10243;49.118;8.508;2022-11-25T07:42:20;14.37;;;7.67;;
20166;SDS011;10243;49.118;8.508;2022-11-25T07:45:22;13.80;;;6.93;;
20166;SDS011;10243;49.118;8.508;2022-11-25T07:48:37;15.17;;;7.47;;
20166;SDS011;10243;49.118;8.508;2022-11-25T07:51:41;10.97;;;7.47;;
20166;SDS011;10243;49.118;8.508;2022-11-25T07:54:43;16.17;;;7.53;;
20166;SDS011;10243;49.118;8.508;2022-11-25T07:57:45;13.53;;;7.00;;
20166;SDS011;10243;49.118;8.508;2022-11-25T08:00:47;14.37;;;7.03;;
20166;SDS011;10243;49.118;8.508;2022-11-25T08:03:50;12.77;;;7.97;;
20166;SDS011;10243;49.118;8.508;2022-11-25T08:06:53;15.97;;;8.53;;
20166;SDS011;10243;49.118;8.508;2022-11-25T08:09:55;17.03;;;8.43;;
20166;SDS011;10243;49.118;8.508;2022-11-25T08:12:57;15.07;;;8.30;;
20166;SDS011;10243;49.118;8.508;2022-11-25T08:15:59;18.07;;;9.43;;
20166;SDS011;10243;49.118;8.508;2022-11-25T08:19:03;13.57;;;9.13;;
20166;SDS011;10243;49.118;8.508;2022-11-25T08:22:06;18.97;;;12.00;;
20166;SDS011;10243;49.118;8.508;2022-11-25T08:25:08;19.97;;;11.60;;
20166;SDS011;10243;49.118;8.508;2022-11-25T08:28:10;19.63;;;11.43;;
20166;SDS011;10243;49.118;8.508;2022-11-25T08:31:13;21.27;;;11.13;;
20166;SDS011;10243;49.118;8.508;2022-11-25T08:34:19;15.03;;;9.93;;
20166;SDS011;10243;49.118;8.508;2022-11-25T08:37:26;22.47;;;13.47;;
20166;SDS011;10243;49.118;8.508;2022-11-25T08:40:27;19.23;;;11.67;;
20166;SDS011;10243;49.118;8.508;2022-11-25T08:43:29;20.50;;;10.57;;
20166;SDS011;10243;49.118;8.508;2022-11-25T08:46:32;17.60;;;8.80;;
20166;SDS011;10243;49.118;8.508;2022-11-25T08:49:38;12.97;;;7.90;;
20166;SDS011;10243;49.118;8.508;2022-11-25T08:52:40;17.00;;;7.40;;
20166;SDS011;10243;49.118;8.508;2022-11-25T08:55:42;11.30;;;6.53;;
20166;SDS011;10243;49.118;8.508;2022-11-25T08:58:44;11.77;;;6.40;;
20166;SDS011;10243;49.118;8.508;2022-11-25T09:01:47;21.27;;;7.63;;
20166;SDS011;10243;49.118;8.508;2022-11-25T09:04:51;8.33;;;6.03;;
20166;SDS011;10243;49.118;8.508;2022-11-25T09:07:53;10.43;;;6.53;;
20166;SDS011;10243;49.118;8.508;2022-11-25T09:10:54;10.17;;;5.60;;
20166;SDS011;10243;49.118;8.508;2022-11-25T09:13:57;13.77;;;6.57;;
20166;SDS011;10243;49.118;8.508;2022-11-25T09:16:58;10.87;;;7.27;;
20166;SDS011;10243;49.118;8.508;2022-11-25T09:20:03;14.87;;;9.30;;
20166;SDS011;10243;49.118;8.508;2022-11-25T09:23:06;20.60;;;8.47;;
20166;SDS011;10243;49.118;8.508;2022-11-25T09:26:12;17.13;;;8.17;;
20166;SDS011;10243;49.118;8.508;2022-11-25T09:29:21;11.63;;;7.20;;
20166;SDS011;10243;49.118;8.508;2022-11-25T09:32:22;14.17;;;6.50;;
20166;SDS011;10243;49.118;8.508;2022-11-25T09:35:26;29.37;;;14.10;;
20166;SDS011;10243;49.118;8.508;2022-11-25T09:38:28;9.93;;;6.00;;
20166;SDS011;10243;49.118;8.508;2022-11-25T09:41:47;10.83;;;6.03;;
20166;SDS011;10243;49.118;8.508;2022-11-25T09:45:18;13.80;;;5.73;;
20166;SDS011;10243;49.118;8.508;2022-11-25T09:48:43;11.30;;;5.17;;
20166;SDS011;10243;49.118;8.508;2022-11-25T09:51:57;10.23;;;5.47;;
20166;SDS011;10243;49.118;8.508;2022-11-25T09:55:08;13.23;;;7.03;;
20166;SDS011;10243;49.118;8.508;2022-11-25T09:58:19;17.93;;;7.30;;
20166;SDS011;10243;49.118;8.508;2022-11-25T10:01:30;13.13;;;6.53;;
20166;SDS011;10243;49.118;8.508;2022-11-25T10:04:48;11.53;;;6.57;;
20166;SDS011;10243;49.118;8.508;2022-11-25T10:07:56;15.10;;;5.93;;
20166;SDS011;10243;49.118;8.508;2022-11-25T10:11:02;11.77;;;5.77;;
20166;SDS011;10243;49.118;8.508;2022-11-25T10:14:17;9.60;;;4.70;;
20166;SDS011;10243;49.118;8.508;2022-11-25T10:17:29;10.43;;;5.13;;
20166;SDS011;10243;49.118;8.508;2022-11-25T10:20:38;12.07;;;5.63;;
20166;SDS011;10243;49.118;8.508;2022-11-25T10:23:43;15.30;;;6.70;;
20166;SDS011;10243;49.118;8.508;2022-11-25T10:26:47;11.13;;;5.90;;
20166;SDS011;10243;49.118;8.508;2022-11-25T10:30:02;9.63;;;5.60;;
20166;SDS011;10243;49.118;8.508;2022-11-25T10:33:12;8.27;;;5.23;;
20166;SDS011;10243;49.118;8.508;2022-11-25T10:36:19;14.20;;;5.67;;
20166;SDS011;10243;49.118;8.508;2022-11-25T10:39:25;12.97;;;6.93;;
20166;SDS011;10243;49.118;8.508;2022-11-25T10:42:32;10.33;;;6.33;;
20166;SDS011;10243;49.118;8.508;2022-11-25T10:45:37;10.67;;;6.00;;
20166;SDS011;10243;49.118;8.508;2022-11-25T10:48:49;15.87;;;6.47;;
20166;SDS011;10243;49.118;8.508;2022-11-25T10:51:55;13.70;;;6.27;;
20166;SDS011;10243;49.118;8.508;2022-11-25T10:55:07;13.20;;;6.43;;
20166;SDS011;10243;49.118;8.508;2022-11-25T10:58:20;14.67;;;5.67;;
20166;SDS011;10243;49.118;8.508;2022-11-25T11:01:28;10.10;;;5.93;;
20166;SDS011;10243;49.118;8.508;2022-11-25T11:04:30;10.97;;;5.50;;
20166;SDS011;10243;49.118;8.508;2022-11-25T11:07:35;19.30;;;5.83;;
20166;SDS011;10243;49.118;8.508;2022-11-25T11:10:40;11.67;;;5.90;;
20166;SDS011;10243;49.118;8.508;2022-11-25T11:13:42;17.30;;;6.30;;
20166;SDS011;10243;49.118;8.508;2022-11-25T11:16:50;9.23;;;5.93;;
20166;SDS011;10243;49.118;8.508;2022-11-25T11:20:12;14.30;;;6.33;;
20166;SDS011;10243;49.118;8.508;2022-11-25T11:23:16;11.83;;;7.50;;
20166;SDS011;10243;49.118;8.508;2022-11-25T11:26:21;16.60;;;7.00;;
20166;SDS011;10243;49.118;8.508;2022-11-25T11:29:25;15.43;;;7.17;;
20166;SDS011;10243;49.118;8.508;2022-11-25T11:32:27;15.50;;;7.30;;
20166;SDS011;10243;49.118;8.508;2022-11-25T11:35:34;18.60;;;7.67;;
20166;SDS011;10243;49.118;8.508;2022-11-25T11:38:52;13.10;;;7.03;;
20166;SDS011;10243;49.118;8.508;2022-11-25T11:41:57;14.10;;;7.17;;
20166;SDS011;10243;49.118;8.508;2022-11-25T11:45:11;12.53;;;7.37;;
20166;SDS011;10243;49.118;8.508;2022-11-25T11:48:29;14.40;;;7.63;;
20166;SDS011;10243;49.118;8.508;2022-11-25T11:51:39;15.77;;;6.90;;
20166;SDS011;10243;49.118;8.508;2022-11-25T11:54:51;16.40;;;8.03;;
20166;SDS011;10243;49.118;8.508;2022-11-25T11:57:57;17.27;;;8.90;;
20166;SDS011;10243;49.118;8.508;2022-11-25T12:01:11;19.50;;;8.03;;
20166;SDS011;10243;49.118;8.508;2022-11-25T12:04:24;21.37;;;9.17;;
20166;SDS011;10243;49.118;8.508;2022-11-25T12:07:29;14.70;;;7.87;;
20166;SDS011;10243;49.118;8.508;2022-11-25T12:10:35;18.20;;;7.97;;
20166;SDS011;10243;49.118;8.508;2022-11-25T12:13:44;16.33;;;7.67;;
20166;SDS011;10243;49.118;8.508;2022-11-25T12:16:49;15.93;;;7.63;;
20166;SDS011;10243;49.118;8.508;2022-11-25T12:19:57;17.73;;;7.83;;
20166;SDS011;10243;49.118;8.508;2022-11-25T12:23:05;14.87;;;7.83;;
20166;SDS011;10243;49.118;8.508;2022-11-25T12:26:13;14.87;;;8.70;;
20166;SDS011;10243;49.118;8.508;2022-11-25T12:29:25;20.97;;;8.13;;
20166;SDS011;10243;49.118;8.508;2022-11-25T12:32:43;15.10;;;8.10;;
20166;SDS011;10243;49.118;8.508;2022-11-25T12:36:00;19.03;;;9.93;;
20166;SDS011;10243;49.118;8.508;2022-11-25T12:39:10;16.27;;;9.07;;
20166;SDS011;10243;49.118;8.508;2022-11-25T12:42:21;19.10;;;8.77;;
20166;SDS011;10243;49.118;8.508;2022-11-25T12:45:26;13.17;;;7.97;;
20166;SDS011;10243;49.118;8.508;2022-11-25T12:48:29;16.37;;;8.07;;
20166;SDS011;10243;49.118;8.508;2022-11-25T12:55:09;18.27;;;7.87;;
20166;SDS011;10243;49.118;8.508;2022-11-25T13:01:49;15.97;;;8.03;;
20166;SDS011;10243;49.118;8.508;2022-11-25T13:08:29;22.20;;;8.27;;
20166;SDS011;10243;49.118;8.508;2022-11-25T13:11:53;20.37;;;8.57;;
20166;SDS011;10243;49.118;8.508;2022-11-25T13:15:15;15.57;;;7.63;;
20166;SDS011;10243;49.118;8.508;2022-11-25T13:18:23;17.10;;;7.47;;
20166;SDS011;10243;49.118;8.508;2022-11-25T13:21:27;13.50;;;6.40;;
20166;SDS011;10243;49.118;8.508;2022-11-25T13:24:30;13.00;;;6.83;;
20166;SDS011;10243;49.118;8.508;2022-11-25T13:27:54;18.10;;;7.47;;
20166;SDS011;10243;49.118;8.508;2022-11-25T13:34:25;13.30;;;6.70;;
20166;SDS011;10243;49.118;8.508;2022-11-25T13:37:33;15.13;;;7.03;;
20166;SDS011;10243;49.118;8.508;2022-11-25T13:40:36;16.63;;;6.80;;
20166;SDS011;10243;49.118;8.508;2022-11-25T13:43:47;14.97;;;6.73;;
20166;SDS011;10243;49.118;8.508;2022-11-25T13:46:58;16.23;;;6.57;;
20166;SDS011;10243;49.118;8.508;2022-11-25T13:50:22;18.17;;;6.83;;
20166;SDS011;10243;49.118;8.508;2022-11-25T13:53:27;13.83;;;6.83;;
20166;SDS011;10243;49.118;8.508;2022-11-25T13:56:33;14.10;;;7.37;;
20166;SDS011;10243;49.118;8.508;2022-11-25T13:59:36;13.77;;;6.67;;
20166;SDS011;10243;49.118;8.508;2022-11-25T14:02:48;15.70;;;8.20;;
20166;SDS011;10243;49.118;8.508;2022-11-25T14:05:55;20.67;;;8.77;;
20166;SDS011;10243;49.118;8.508;2022-11-25T14:09:10;17.27;;;9.50;;
20166;SDS011;10243;49.118;8.508;2022-11-25T14:12:22;24.47;;;7.73;;
20166;SDS011;10243;49.118;8.508;2022-11-25T14:26:13;28.23;;;11.53;;
20166;SDS011;10243;49.118;8.508;2022-11-25T14:29:24;16.40;;;6.87;;
20166;SDS011;10243;49.118;8.508;2022-11-25T14:32:31;21.23;;;11.17;;
20166;SDS011;10243;49.118;8.508;2022-11-25T14:35:38;18.57;;;10.23;;
20166;SDS011;10243;49.118;8.508;2022-11-25T14:38:46;26.73;;;9.90;;
20166;SDS011;10243;49.118;8.508;2022-11-25T14:41:54;27.00;;;12.20;;
20166;SDS011;10243;49.118;8.508;2022-11-25T14:45:00;14.63;;;7.80;;
20166;SDS011;10243;49.118;8.508;2022-11-25T14:48:12;20.70;;;8.77;;
20166;SDS011;10243;49.118;8.508;2022-11-25T14:51:15;17.70;;;7.53;;
20166;SDS011;10243;49.118;8.508;2022-11-25T14:54:19;23.17;;;9.50;;
20166;SDS011;10243;49.118;8.508;2022-11-25T14:57:22;18.30;;;7.67;;
20166;SDS011;10243;49.118;8.508;2022-11-25T15:00:25;18.67;;;8.30;;
20166;SDS011;10243;49.118;8.508;2022-11-25T15:03:27;19.20;;;7.60;;
20166;SDS011;10243;49.118;8.508;2022-11-25T15:06:32;21.83;;;10.40;;
20166;SDS011;10243;49.118;8.508;2022-11-25T15:09:37;16.93;;;6.10;;
20166;SDS011;10243;49.118;8.508;2022-11-25T15:12:44;22.10;;;9.30;;
20166;SDS011;10243;49.118;8.508;2022-11-25T15:15:46;16.27;;;6.70;;
20166;SDS011;10243;49.118;8.508;2022-11-25T15:18:50;16.57;;;6.67;;
20166;SDS011;10243;49.118;8.508;2022-11-25T15:21:55;14.63;;;6.17;;
20166;SDS011;10243;49.118;8.508;2022-11-25T15:25:06;18.63;;;7.10;;
20166;SDS011;10243;49.118;8.508;2022-11-25T15:28:13;15.33;;;6.80;;
20166;SDS011;10243;49.118;8.508;2022-11-25T15:31:17;17.33;;;6.30;;
20166;SDS011;10243;49.118;8.508;2022-11-25T15:34:21;18.63;;;5.93;;
20166;SDS011;10243;49.118;8.508;2022-11-25T15:37:24;16.40;;;6.63;;
20166;SDS011;10243;49.118;8.508;2022-11-25T15:40:31;17.83;;;8.30;;
20166;SDS011;10243;49.118;8.508;2022-11-25T15:43:36;24.30;;;7.83;;
20166;SDS011;10243;49.118;8.508;2022-11-25T15:46:41;52.47;;;25.50;;
20166;SDS011;10243;49.118;8.508;2022-11-25T15:49:56;46.17;;;19.30;;
20166;SDS011;10243;49.118;8.508;2022-11-25T15:53:00;16.27;;;9.63;;
20166;SDS011;10243;49.118;8.508;2022-11-25T20:25:26;41.80;;;16.35;;
20166;SDS011;10243;49.118;8.508;2022-11-25T20:28:28;32.00;;;13.27;;
20166;SDS011;10243;49.118;8.508;2022-11-25T20:31:31;30.47;;;11.93;;
20166;SDS011;10243;49.118;8.508;2022-11-25T20:34:33;34.57;;;12.93;;
20166;SDS011;10243;49.118;8.508;2022-11-25T20:37:34;35.73;;;14.97;;
20166;SDS011;10243;49.118;8.508;2022-11-25T20:40:51;50.57;;;22.00;;
20166;SDS011;10243;49.118;8.508;2022-11-25T20:43:56;36.07;;;17.30;;
20166;SDS011;10243;49.118;8.508;2022-11-25T20:46:58;39.50;;;12.77;;
20166;SDS011;10243;49.118;8.508;2022-11-25T20:50:00;43.13;;;14.30;;
20166;SDS011;10243;49.118;8.508;2022-11-25T20:53:02;37.43;;;20.77;;
20166;SDS011;10243;49.118;8.508;2022-11-25T20:56:05;29.77;;;15.77;;
20166;SDS011;10243;49.118;8.508;2022-11-25T20:59:10;40.63;;;16.23;;
20166;SDS011;10243;49.118;8.508;2022-11-25T21:02:19;39.33;;;14.30;;
20166;SDS011;10243;49.118;8.508;2022-11-25T21:05:21;29.37;;;12.40;;
20166;SDS011;10243;49.118;8.508;2022-11-25T21:08:24;32.23;;;13.87;;
20166;SDS011;10243;49.118;8.508;2022-11-25T21:11:29;35.40;;;15.20;;
20166;SDS011;10243;49.118;8.508;2022-11-25T21:14:32;35.00;;;17.23;;
20166;SDS011;10243;49.118;8.508;2022-11-25T21:17:34;43.00;;;18.13;;
20166;SDS011;10243;49.118;8.508;2022-11-25T21:20:36;34.17;;;14.90;;
20166;SDS011;10243;49.118;8.508;2022-11-25T21:23:38;48.87;;;17.80;;
20166;SDS011;10243;49.118;8.508;2022-11-25T21:26:41;45.90;;;18.53;;
20166;SDS011;10243;49.118;8.508;2022-11-25T21:29:43;49.20;;;18.67;;
20166;SDS011;10243;49.118;8.508;2022-11-25T21:32:46;37.70;;;15.60;;
20166;SDS011;10243;49.118;8.508;2022-11-25T21:35:48;48.67;;;19.27;;
20166;SDS011;10243;49.118;8.508;2022-11-25T21:38:51;47.53;;;20.63;;
20166;SDS011;10243;49.118;8.508;2022-11-25T21:42:03;45.27;;;17.57;;
20166;SDS011;10243;49.118;8.508;2022-11-25T21:45:08;32.77;;;15.07;;
20166;SDS011;10243;49.118;8.508;2022-11-25T21:48:15;58.47;;;26.97;;
20166;SDS011;10243;49.118;8.508;2022-11-25T21:51:19;107.60;;;41.63;;
20166;SDS011;10243;49.118;8.508;2022-11-25T21:54:23;44.13;;;14.90;;
20166;SDS011;10243;49.118;8.508;2022-11-25T21:57:26;73.20;;;30.93;;
20166;SDS011;10243;49.118;8.508;2022-11-25T22:00:32;33.90;;;13.67;;
20166;SDS011;10243;49.118;8.508;2022-11-25T22:03:34;33.03;;;12.73;;
20166;SDS011;10243;49.118;8.508;2022-11-25T22:06:36;28.80;;;14.30;;
20166;SDS011;10243;49.118;8.508;2022-11-25T22:09:38;27.33;;;13.33;;
20166;SDS011;10243;49.118;8.508;2022-11-25T22:12:42;31.83;;;13.10;;
20166;SDS011;10243;49.118;8.508;2022-11-25T22:15:45;30.00;;;13.97;;
